SETU/TUA METAR and TAF weather

Enter ICAO airport designator
Station Type Date Time Source
SETU METAR 2021/05/14 21:00 UTC NOAA

SETU 142100Z 10010KT 9999 BKN020 15/11 Q1029


Station Type Date Time Source
SETU Decoded METAR 2021/05/14 21:00 UTC NOAA

Tulcan / El Rosal, Ecuador (SETU) 00-49N 077-42W
May 14, 2021 - 05:00 PM EDT / 2021.05.14 2100 UTC
Wind: from the E (100 degrees) at 12 MPH (10 KT):0
Visibility: greater than 7 mile(s):0
Sky conditions: mostly cloudy
Temperature: 59 F (15 C)
Dew Point: 51 F (11 C)
Relative Humidity: 76%
Pressure (altimeter): 30.39 in. Hg (1029 hPa)
ob: SETU 142100Z 10010KT 9999 BKN020 15/11 Q1029
cycle: 21

Station Type Date Time Source
SETU TAF UTC NOAA

Error!

Example: see airport list